sensor_id;sensor_type;location;lat;lon;timestamp;pressure;altitude;pressure_sealevel;temperature;humidity
17260;BME280;8746;49.230;9.220;2023-07-31T00:01:10;99868.28;;;17.01;78.04
17260;BME280;8746;49.230;9.220;2023-07-31T00:03:35;99866.88;;;16.95;78.82
17260;BME280;8746;49.230;9.220;2023-07-31T00:06:01;99869.31;;;16.98;79.70
17260;BME280;8746;49.230;9.220;2023-07-31T00:08:26;99854.31;;;16.97;79.97
17260;BME280;8746;49.230;9.220;2023-07-31T00:10:52;99859.06;;;16.92;80.44
17260;BME280;8746;49.230;9.220;2023-07-31T00:13:18;99856.59;;;16.89;80.42
17260;BME280;8746;49.230;9.220;2023-07-31T00:15:43;99854.88;;;16.88;79.91
17260;BME280;8746;49.230;9.220;2023-07-31T00:18:08;99855.72;;;16.88;80.33
17260;BME280;8746;49.230;9.220;2023-07-31T00:20:34;99848.22;;;16.95;79.05
17260;BME280;8746;49.230;9.220;2023-07-31T00:22:59;99852.78;;;16.93;79.90
17260;BME280;8746;49.230;9.220;2023-07-31T00:25:24;99853.94;;;16.89;78.41
17260;BME280;8746;49.230;9.220;2023-07-31T00:27:50;99854.69;;;16.91;78.54
17260;BME280;8746;49.230;9.220;2023-07-31T00:30:15;99851.47;;;16.86;77.76
17260;BME280;8746;49.230;9.220;2023-07-31T00:32:41;99857.78;;;16.85;77.81
17260;BME280;8746;49.230;9.220;2023-07-31T00:35:06;99863.84;;;16.87;77.93
17260;BME280;8746;49.230;9.220;2023-07-31T00:37:32;99857.03;;;16.82;78.86
17260;BME280;8746;49.230;9.220;2023-07-31T00:39:57;99862.25;;;16.84;79.43
17260;BME280;8746;49.230;9.220;2023-07-31T00:42:22;99858.16;;;16.78;79.33
17260;BME280;8746;49.230;9.220;2023-07-31T00:44:48;99850.94;;;16.80;79.86
17260;BME280;8746;49.230;9.220;2023-07-31T00:47:13;99848.38;;;16.79;79.34
17260;BME280;8746;49.230;9.220;2023-07-31T00:49:38;99843.16;;;16.77;77.95
17260;BME280;8746;49.230;9.220;2023-07-31T00:52:04;99846.66;;;16.78;79.14
17260;BME280;8746;49.230;9.220;2023-07-31T00:54:30;99845.06;;;16.75;79.65
17260;BME280;8746;49.230;9.220;2023-07-31T00:56:56;99836.31;;;16.73;79.26
17260;BME280;8746;49.230;9.220;2023-07-31T00:59:21;99837.09;;;16.75;78.42
17260;BME280;8746;49.230;9.220;2023-07-31T01:01:47;99835.66;;;16.70;79.97
17260;BME280;8746;49.230;9.220;2023-07-31T01:04:12;99836.44;;;16.72;79.79
17260;BME280;8746;49.230;9.220;2023-07-31T01:06:49;99827.91;;;16.66;79.08
17260;BME280;8746;49.230;9.220;2023-07-31T01:09:37;99837.28;;;16.72;79.62
17260;BME280;8746;49.230;9.220;2023-07-31T01:12:06;99831.88;;;16.74;79.46
17260;BME280;8746;49.230;9.220;2023-07-31T01:14:32;99830.34;;;16.70;78.70
17260;BME280;8746;49.230;9.220;2023-07-31T01:16:58;99818.84;;;16.69;78.53
17260;BME280;8746;49.230;9.220;2023-07-31T01:19:25;99810.09;;;16.67;78.44
17260;BME280;8746;49.230;9.220;2023-07-31T01:27:30;99810.63;;;16.72;78.59
17260;BME280;8746;49.230;9.220;2023-07-31T01:30:09;99809.69;;;16.73;77.75
17260;BME280;8746;49.230;9.220;2023-07-31T01:32:40;99797.75;;;16.66;77.94
17260;BME280;8746;49.230;9.220;2023-07-31T01:35:06;99797.09;;;16.62;78.09
17260;BME280;8746;49.230;9.220;2023-07-31T01:37:32;99808.09;;;16.58;79.39
17260;BME280;8746;49.230;9.220;2023-07-31T01:39:57;99805.41;;;16.58;79.43
17260;BME280;8746;49.230;9.220;2023-07-31T01:42:23;99801.34;;;16.52;79.74
17260;BME280;8746;49.230;9.220;2023-07-31T01:44:48;99802.75;;;16.58;79.30
17260;BME280;8746;49.230;9.220;2023-07-31T01:47:13;99798.16;;;16.60;79.90
17260;BME280;8746;49.230;9.220;2023-07-31T01:49:39;99804.66;;;16.56;80.15
17260;BME280;8746;49.230;9.220;2023-07-31T01:52:04;99802.81;;;16.43;79.08
17260;BME280;8746;49.230;9.220;2023-07-31T01:54:30;99800.34;;;16.40;81.24
17260;BME280;8746;49.230;9.220;2023-07-31T01:56:55;99789.16;;;16.35;79.95
17260;BME280;8746;49.230;9.220;2023-07-31T01:59:21;99797.50;;;16.43;80.35
17260;BME280;8746;49.230;9.220;2023-07-31T02:01:47;99792.19;;;16.43;80.35
17260;BME280;8746;49.230;9.220;2023-07-31T02:04:12;99794.72;;;16.45;81.05
17260;BME280;8746;49.230;9.220;2023-07-31T02:06:38;99794.06;;;16.41;81.51
17260;BME280;8746;49.230;9.220;2023-07-31T02:09:04;99784.50;;;16.39;81.13
17260;BME280;8746;49.230;9.220;2023-07-31T02:11:29;99775.44;;;16.28;81.98
17260;BME280;8746;49.230;9.220;2023-07-31T02:13:54;99784.38;;;16.27;81.80
17260;BME280;8746;49.230;9.220;2023-07-31T02:16:20;99778.53;;;16.35;83.22
17260;BME280;8746;49.230;9.220;2023-07-31T02:18:45;99781.59;;;16.29;81.70
17260;BME280;8746;49.230;9.220;2023-07-31T02:21:10;99778.16;;;16.27;82.81
17260;BME280;8746;49.230;9.220;2023-07-31T02:23:35;99776.16;;;16.30;82.32
17260;BME280;8746;49.230;9.220;2023-07-31T02:26:01;99770.47;;;16.22;82.34
17260;BME280;8746;49.230;9.220;2023-07-31T02:28:26;99773.78;;;16.26;82.56
17260;BME280;8746;49.230;9.220;2023-07-31T02:30:51;99764.22;;;16.23;82.45
17260;BME280;8746;49.230;9.220;2023-07-31T02:33:17;99762.50;;;16.22;82.81
17260;BME280;8746;49.230;9.220;2023-07-31T02:35:42;99761.56;;;16.23;83.17
17260;BME280;8746;49.230;9.220;2023-07-31T02:38:08;99761.34;;;16.26;83.85
17260;BME280;8746;49.230;9.220;2023-07-31T02:40:33;99761.47;;;16.25;82.53
17260;BME280;8746;49.230;9.220;2023-07-31T02:42:58;99760.31;;;16.29;81.77
17260;BME280;8746;49.230;9.220;2023-07-31T02:45:24;99759.34;;;16.30;83.48
17260;BME280;8746;49.230;9.220;2023-07-31T02:47:49;99760.00;;;16.33;83.38
17260;BME280;8746;49.230;9.220;2023-07-31T02:50:14;99759.03;;;16.34;82.79
17260;BME280;8746;49.230;9.220;2023-07-31T02:52:40;99760.00;;;16.33;82.60
17260;BME280;8746;49.230;9.220;2023-07-31T02:55:06;99762.34;;;16.38;82.85
17260;BME280;8746;49.230;9.220;2023-07-31T02:57:31;99756.91;;;16.40;82.70
17260;BME280;8746;49.230;9.220;2023-07-31T02:59:56;99753.50;;;16.38;83.33
17260;BME280;8746;49.230;9.220;2023-07-31T03:02:22;99763.31;;;16.37;82.18
17260;BME280;8746;49.230;9.220;2023-07-31T03:04:47;99758.72;;;16.39;83.70
17260;BME280;8746;49.230;9.220;2023-07-31T03:07:13;99757.03;;;16.38;84.41
17260;BME280;8746;49.230;9.220;2023-07-31T03:09:38;99761.72;;;16.34;82.05
17260;BME280;8746;49.230;9.220;2023-07-31T03:12:03;99755.31;;;16.37;82.92
17260;BME280;8746;49.230;9.220;2023-07-31T03:14:29;99753.72;;;16.34;83.43
17260;BME280;8746;49.230;9.220;2023-07-31T03:16:54;99762.34;;;16.38;82.46
17260;BME280;8746;49.230;9.220;2023-07-31T03:19:20;99749.44;;;16.32;82.26
17260;BME280;8746;49.230;9.220;2023-07-31T03:21:45;99752.31;;;16.29;82.76
17260;BME280;8746;49.230;9.220;2023-07-31T03:24:10;99756.16;;;16.25;82.37
17260;BME280;8746;49.230;9.220;2023-07-31T03:26:37;99755.09;;;16.27;82.14
17260;BME280;8746;49.230;9.220;2023-07-31T03:29:03;99754.03;;;16.30;83.48
17260;BME280;8746;49.230;9.220;2023-07-31T03:31:29;99749.66;;;16.29;82.97
17260;BME280;8746;49.230;9.220;2023-07-31T03:33:54;99756.69;;;16.30;83.41
17260;BME280;8746;49.230;9.220;2023-07-31T03:36:19;99755.81;;;16.29;83.20
17260;BME280;8746;49.230;9.220;2023-07-31T03:38:46;99759.22;;;16.31;82.90
17260;BME280;8746;49.230;9.220;2023-07-31T03:41:11;99753.81;;;16.33;82.25
17260;BME280;8746;49.230;9.220;2023-07-31T03:43:37;99756.69;;;16.30;83.13
17260;BME280;8746;49.230;9.220;2023-07-31T03:46:02;99754.22;;;16.27;83.67
17260;BME280;8746;49.230;9.220;2023-07-31T03:48:28;99757.09;;;16.24;83.04
17260;BME280;8746;49.230;9.220;2023-07-31T03:50:54;99752.72;;;16.23;83.26
17260;BME280;8746;49.230;9.220;2023-07-31T03:53:19;99753.25;;;16.28;82.46
17260;BME280;8746;49.230;9.220;2023-07-31T03:55:45;99746.34;;;16.25;83.44
17260;BME280;8746;49.230;9.220;2023-07-31T03:58:10;99751.66;;;16.25;82.80
17260;BME280;8746;49.230;9.220;2023-07-31T04:00:36;99742.63;;;16.28;83.38
17260;BME280;8746;49.230;9.220;2023-07-31T04:03:01;99753.78;;;16.20;82.55
17260;BME280;8746;49.230;9.220;2023-07-31T04:05:26;99744.94;;;16.19;81.45
17260;BME280;8746;49.230;9.220;2023-07-31T04:07:52;99756.88;;;16.27;82.54
17260;BME280;8746;49.230;9.220;2023-07-31T04:10:17;99758.06;;;16.23;82.21
17260;BME280;8746;49.230;9.220;2023-07-31T04:12:42;99758.56;;;16.15;81.00
17260;BME280;8746;49.230;9.220;2023-07-31T04:15:08;99763.38;;;16.23;82.64
17260;BME280;8746;49.230;9.220;2023-07-31T04:17:33;99758.06;;;16.23;83.33
17260;BME280;8746;49.230;9.220;2023-07-31T04:19:58;99758.25;;;16.19;81.60
17260;BME280;8746;49.230;9.220;2023-07-31T04:22:24;99753.38;;;16.26;82.68
17260;BME280;8746;49.230;9.220;2023-07-31T04:24:49;99753.38;;;16.26;84.13
17260;BME280;8746;49.230;9.220;2023-07-31T04:27:14;99754.22;;;16.27;83.39
17260;BME280;8746;49.230;9.220;2023-07-31T04:29:39;99754.75;;;16.32;82.87
17260;BME280;8746;49.230;9.220;2023-07-31T04:32:07;99748.59;;;16.31;82.88
17260;BME280;8746;49.230;9.220;2023-07-31T04:34:33;99754.38;;;16.38;82.85
17260;BME280;8746;49.230;9.220;2023-07-31T04:36:58;99756.63;;;16.44;83.15
17260;BME280;8746;49.230;9.220;2023-07-31T04:39:23;99750.22;;;16.47;84.01
17260;BME280;8746;49.230;9.220;2023-07-31T04:41:49;99749.16;;;16.49;84.47
17260;BME280;8746;49.230;9.220;2023-07-31T04:44:14;99745.44;;;16.52;81.32
17260;BME280;8746;49.230;9.220;2023-07-31T04:46:39;99747.25;;;16.52;81.00
17260;BME280;8746;49.230;9.220;2023-07-31T04:49:04;99740.41;;;16.47;81.46
17260;BME280;8746;49.230;9.220;2023-07-31T04:51:30;99752.78;;;16.48;80.45
17260;BME280;8746;49.230;9.220;2023-07-31T04:53:56;99742.66;;;16.54;81.23
17260;BME280;8746;49.230;9.220;2023-07-31T04:56:21;99736.06;;;16.59;80.71
17260;BME280;8746;49.230;9.220;2023-07-31T04:58:47;99732.00;;;16.54;78.65
17260;BME280;8746;49.230;9.220;2023-07-31T05:01:12;99732.13;;;16.52;78.85
17260;BME280;8746;49.230;9.220;2023-07-31T05:03:37;99722.84;;;16.45;79.17
17260;BME280;8746;49.230;9.220;2023-07-31T05:06:03;99728.91;;;16.47;80.05
17260;BME280;8746;49.230;9.220;2023-07-31T05:08:28;99725.06;;;16.51;80.84
17260;BME280;8746;49.230;9.220;2023-07-31T05:10:53;99726.91;;;16.50;79.47
17260;BME280;8746;49.230;9.220;2023-07-31T05:13:19;99720.63;;;16.52;79.64
17260;BME280;8746;49.230;9.220;2023-07-31T05:15:45;99724.25;;;16.50;79.50
17260;BME280;8746;49.230;9.220;2023-07-31T05:18:10;99728.19;;;16.58;80.08
17260;BME280;8746;49.230;9.220;2023-07-31T05:20:35;99718.78;;;16.65;82.10
17260;BME280;8746;49.230;9.220;2023-07-31T05:23:01;99719.44;;;16.56;83.30
17260;BME280;8746;49.230;9.220;2023-07-31T05:25:26;99724.88;;;16.54;84.44
17260;BME280;8746;49.230;9.220;2023-07-31T05:27:51;99724.66;;;16.57;84.73
17260;BME280;8746;49.230;9.220;2023-07-31T05:30:17;99728.69;;;16.50;84.01
17260;BME280;8746;49.230;9.220;2023-07-31T05:32:42;99719.75;;;16.51;84.33
17260;BME280;8746;49.230;9.220;2023-07-31T05:35:08;99716.56;;;16.59;84.36
17260;BME280;8746;49.230;9.220;2023-07-31T05:37:34;99718.41;;;16.71;82.96
17260;BME280;8746;49.230;9.220;2023-07-31T05:39:59;99721.06;;;16.71;83.06
17260;BME280;8746;49.230;9.220;2023-07-31T05:42:24;99719.88;;;16.75;82.50
17260;BME280;8746;49.230;9.220;2023-07-31T05:44:50;99724.44;;;16.86;82.25
17260;BME280;8746;49.230;9.220;2023-07-31T05:47:15;99729.78;;;16.86;81.98
17260;BME280;8746;49.230;9.220;2023-07-31T05:49:41;99723.19;;;17.05;81.92
17260;BME280;8746;49.230;9.220;2023-07-31T05:52:06;99720.63;;;17.03;82.17
17260;BME280;8746;49.230;9.220;2023-07-31T05:54:32;99721.34;;;17.05;79.42
17260;BME280;8746;49.230;9.220;2023-07-31T05:56:58;99717.00;;;17.04;80.40
17260;BME280;8746;49.230;9.220;2023-07-31T05:59:23;99713.16;;;17.08;78.83
17260;BME280;8746;49.230;9.220;2023-07-31T06:01:49;99719.00;;;17.13;79.53
17260;BME280;8746;49.230;9.220;2023-07-31T06:04:14;99720.72;;;17.14;78.64
17260;BME280;8746;49.230;9.220;2023-07-31T06:06:39;99723.50;;;17.13;78.89
17260;BME280;8746;49.230;9.220;2023-07-31T06:09:05;99724.66;;;17.09;79.35
17260;BME280;8746;49.230;9.220;2023-07-31T06:11:30;99717.22;;;17.01;78.65
17260;BME280;8746;49.230;9.220;2023-07-31T06:13:55;99721.03;;;17.10;80.33
17260;BME280;8746;49.230;9.220;2023-07-31T06:16:21;99731.91;;;17.20;79.05
17260;BME280;8746;49.230;9.220;2023-07-31T06:18:46;99720.06;;;17.24;79.31
17260;BME280;8746;49.230;9.220;2023-07-31T06:21:12;99723.97;;;17.31;77.97
17260;BME280;8746;49.230;9.220;2023-07-31T06:23:37;99721.41;;;17.42;78.24
17260;BME280;8746;49.230;9.220;2023-07-31T06:26:02;99718.41;;;17.47;77.45
17260;BME280;8746;49.230;9.220;2023-07-31T06:28:29;99719.16;;;17.73;76.33
17260;BME280;8746;49.230;9.220;2023-07-31T06:30:55;99712.00;;;17.98;75.29
17260;BME280;8746;49.230;9.220;2023-07-31T06:33:20;99709.41;;;18.09;74.54
17260;BME280;8746;49.230;9.220;2023-07-31T06:35:46;99714.06;;;18.30;74.04
17260;BME280;8746;49.230;9.220;2023-07-31T06:38:11;99712.91;;;18.57;72.72
17260;BME280;8746;49.230;9.220;2023-07-31T06:40:36;99709.53;;;18.66;72.29
17260;BME280;8746;49.230;9.220;2023-07-31T06:43:02;99714.25;;;18.74;71.09
17260;BME280;8746;49.230;9.220;2023-07-31T06:45:36;99714.88;;;18.78;71.26
17260;BME280;8746;49.230;9.220;2023-07-31T06:48:01;99715.41;;;18.94;70.71
17260;BME280;8746;49.230;9.220;2023-07-31T06:50:31;99695.97;;;19.03;69.63
17260;BME280;8746;49.230;9.220;2023-07-31T06:52:56;99702.31;;;19.02;71.08
17260;BME280;8746;49.230;9.220;2023-07-31T06:55:22;99704.00;;;18.92;70.19
17260;BME280;8746;49.230;9.220;2023-07-31T06:57:49;99705.56;;;19.06;66.14
17260;BME280;8746;49.230;9.220;2023-07-31T07:00:16;99707.16;;;19.09;67.72
17260;BME280;8746;49.230;9.220;2023-07-31T07:02:41;99709.81;;;19.20;65.81
17260;BME280;8746;49.230;9.220;2023-07-31T07:05:07;99708.81;;;19.32;66.48
17260;BME280;8746;49.230;9.220;2023-07-31T07:07:33;99703.47;;;19.32;65.91
17260;BME280;8746;49.230;9.220;2023-07-31T07:09:58;99697.38;;;19.30;65.85
17260;BME280;8746;49.230;9.220;2023-07-31T07:12:29;99705.53;;;19.29;65.41
17260;BME280;8746;49.230;9.220;2023-07-31T07:14:55;99695.38;;;19.11;64.57
17260;BME280;8746;49.230;9.220;2023-07-31T07:17:20;99694.41;;;19.12;65.32
17260;BME280;8746;49.230;9.220;2023-07-31T07:19:47;99685.63;;;19.21;64.90
17260;BME280;8746;49.230;9.220;2023-07-31T07:22:13;99702.13;;;19.27;65.18
17260;BME280;8746;49.230;9.220;2023-07-31T07:24:38;99698.34;;;19.29;64.65
17260;BME280;8746;49.230;9.220;2023-07-31T07:27:03;99713.84;;;19.26;64.25
17260;BME280;8746;49.230;9.220;2023-07-31T07:29:29;99710.91;;;19.29;63.73
17260;BME280;8746;49.230;9.220;2023-07-31T07:31:55;99700.91;;;19.42;64.42
17260;BME280;8746;49.230;9.220;2023-07-31T07:34:23;99691.56;;;19.25;65.55
17260;BME280;8746;49.230;9.220;2023-07-31T07:36:49;99696.78;;;19.38;65.36
17260;BME280;8746;49.230;9.220;2023-07-31T07:39:14;99694.25;;;19.25;66.67
17260;BME280;8746;49.230;9.220;2023-07-31T07:41:40;99697.28;;;19.32;67.57
17260;BME280;8746;49.230;9.220;2023-07-31T07:44:05;99700.53;;;19.47;63.74
17260;BME280;8746;49.230;9.220;2023-07-31T07:46:31;99703.44;;;19.55;63.81
17260;BME280;8746;49.230;9.220;2023-07-31T07:48:56;99696.69;;;19.83;63.94
17260;BME280;8746;49.230;9.220;2023-07-31T07:51:21;99687.50;;;19.97;62.22
17260;BME280;8746;49.230;9.220;2023-07-31T07:53:47;99694.16;;;20.45;62.41
17260;BME280;8746;49.230;9.220;2023-07-31T07:56:12;99694.69;;;20.18;62.33
17260;BME280;8746;49.230;9.220;2023-07-31T07:58:37;99682.72;;;20.22;61.48
17260;BME280;8746;49.230;9.220;2023-07-31T08:01:02;99678.91;;;20.15;61.37
17260;BME280;8746;49.230;9.220;2023-07-31T08:03:28;99680.34;;;20.19;61.67
17260;BME280;8746;49.230;9.220;2023-07-31T08:05:58;99679.22;;;20.22;61.53
17260;BME280;8746;49.230;9.220;2023-07-31T08:08:23;99666.03;;;20.30;63.54
17260;BME280;8746;49.230;9.220;2023-07-31T08:10:48;99673.56;;;20.15;63.24
17260;BME280;8746;49.230;9.220;2023-07-31T08:13:14;99673.72;;;20.23;62.10
17260;BME280;8746;49.230;9.220;2023-07-31T08:15:41;99683.59;;;20.44;62.50
17260;BME280;8746;49.230;9.220;2023-07-31T08:18:06;99673.59;;;20.46;61.49
17260;BME280;8746;49.230;9.220;2023-07-31T08:20:32;99674.44;;;20.68;60.98
17260;BME280;8746;49.230;9.220;2023-07-31T08:22:57;99677.63;;;20.61;60.24
17260;BME280;8746;49.230;9.220;2023-07-31T08:25:23;99672.00;;;20.64;60.57
17260;BME280;8746;49.230;9.220;2023-07-31T08:27:48;99665.03;;;20.52;61.18
17260;BME280;8746;49.230;9.220;2023-07-31T08:30:13;99665.34;;;20.80;60.86
17260;BME280;8746;49.230;9.220;2023-07-31T08:32:39;99657.88;;;20.84;62.06
17260;BME280;8746;49.230;9.220;2023-07-31T08:35:04;99650.50;;;20.76;62.62
17260;BME280;8746;49.230;9.220;2023-07-31T08:37:29;99654.53;;;20.70;60.70
17260;BME280;8746;49.230;9.220;2023-07-31T08:39:55;99653.63;;;20.81;60.82
17260;BME280;8746;49.230;9.220;2023-07-31T08:42:20;99652.28;;;21.06;60.39
17260;BME280;8746;49.230;9.220;2023-07-31T08:44:46;99648.97;;;21.24;60.11
17260;BME280;8746;49.230;9.220;2023-07-31T08:47:13;99648.50;;;21.69;59.18
17260;BME280;8746;49.230;9.220;2023-07-31T08:49:40;99643.38;;;21.76;59.39
17260;BME280;8746;49.230;9.220;2023-07-31T08:52:07;99646.44;;;21.42;58.34
17260;BME280;8746;49.230;9.220;2023-07-31T08:54:32;99650.34;;;21.18;59.03
17260;BME280;8746;49.230;9.220;2023-07-31T08:56:58;99644.09;;;21.08;59.01
17260;BME280;8746;49.230;9.220;2023-07-31T08:59:27;99641.06;;;21.32;59.19
17260;BME280;8746;49.230;9.220;2023-07-31T09:01:55;99633.53;;;21.67;59.50
17260;BME280;8746;49.230;9.220;2023-07-31T09:04:22;99635.31;;;22.05;58.47
17260;BME280;8746;49.230;9.220;2023-07-31T09:06:49;99630.31;;;22.20;56.00
17260;BME280;8746;49.230;9.220;2023-07-31T09:09:15;99634.00;;;22.29;55.20
17260;BME280;8746;49.230;9.220;2023-07-31T09:11:41;99636.59;;;22.11;55.51
17260;BME280;8746;49.230;9.220;2023-07-31T09:14:08;99629.91;;;22.15;57.18
17260;BME280;8746;49.230;9.220;2023-07-31T09:16:34;99627.34;;;22.43;56.96
17260;BME280;8746;49.230;9.220;2023-07-31T09:19:00;99618.69;;;22.49;54.75
17260;BME280;8746;49.230;9.220;2023-07-31T09:21:27;99620.91;;;22.06;54.99
17260;BME280;8746;49.230;9.220;2023-07-31T09:23:53;99623.03;;;21.73;56.00
17260;BME280;8746;49.230;9.220;2023-07-31T09:26:35;99623.03;;;21.64;57.36
17260;BME280;8746;49.230;9.220;2023-07-31T09:29:04;99621.19;;;21.74;55.28
17260;BME280;8746;49.230;9.220;2023-07-31T09:31:38;99616.66;;;22.04;56.08
17260;BME280;8746;49.230;9.220;2023-07-31T09:34:04;99615.69;;;22.05;56.51
17260;BME280;8746;49.230;9.220;2023-07-31T09:36:30;99614.75;;;22.34;55.53
17260;BME280;8746;49.230;9.220;2023-07-31T09:39:02;99609.50;;;22.80;54.20
17260;BME280;8746;49.230;9.220;2023-07-31T09:41:29;99614.22;;;22.68;53.89
17260;BME280;8746;49.230;9.220;2023-07-31T09:43:54;99600.75;;;22.40;54.32
17260;BME280;8746;49.230;9.220;2023-07-31T09:46:20;99603.00;;;22.35;53.55
17260;BME280;8746;49.230;9.220;2023-07-31T09:48:46;99600.38;;;22.05;54.60
17260;BME280;8746;49.230;9.220;2023-07-31T09:51:12;99602.06;;;22.16;54.16
17260;BME280;8746;49.230;9.220;2023-07-31T09:53:37;99598.88;;;22.50;54.44
17260;BME280;8746;49.230;9.220;2023-07-31T09:56:03;99606.38;;;22.84;53.94
17260;BME280;8746;49.230;9.220;2023-07-31T09:58:33;99601.72;;;22.49;54.90
17260;BME280;8746;49.230;9.220;2023-07-31T10:01:01;99603.09;;;22.63;53.89
17260;BME280;8746;49.230;9.220;2023-07-31T10:03:27;99592.88;;;22.94;53.90
17260;BME280;8746;49.230;9.220;2023-07-31T10:05:55;99588.06;;;23.16;53.02
17260;BME280;8746;49.230;9.220;2023-07-31T10:08:26;99596.88;;;23.08;52.40
17260;BME280;8746;49.230;9.220;2023-07-31T10:10:54;99581.50;;;23.64;52.60
17260;BME280;8746;49.230;9.220;2023-07-31T10:13:20;99570.09;;;23.71;51.49
17260;BME280;8746;49.230;9.220;2023-07-31T10:15:47;99570.16;;;23.97;51.70
17260;BME280;8746;49.230;9.220;2023-07-31T10:18:13;99576.97;;;23.47;50.55
17260;BME280;8746;49.230;9.220;2023-07-31T10:20:40;99575.69;;;23.05;52.08
17260;BME280;8746;49.230;9.220;2023-07-31T10:23:06;99572.97;;;22.59;51.80
17260;BME280;8746;49.230;9.220;2023-07-31T10:25:31;99558.47;;;22.98;52.02
17260;BME280;8746;49.230;9.220;2023-07-31T10:27:58;99567.03;;;22.83;51.89
17260;BME280;8746;49.230;9.220;2023-07-31T10:30:27;99563.25;;;23.40;50.70
17260;BME280;8746;49.230;9.220;2023-07-31T10:32:54;99563.34;;;23.66;52.02
17260;BME280;8746;49.230;9.220;2023-07-31T10:35:21;99554.03;;;23.61;50.69
17260;BME280;8746;49.230;9.220;2023-07-31T10:37:48;99551.50;;;23.23;50.99
17260;BME280;8746;49.230;9.220;2023-07-31T10:40:17;99552.34;;;23.24;50.99
17260;BME280;8746;49.230;9.220;2023-07-31T10:42:51;99559.13;;;23.00;51.56
17260;BME280;8746;49.230;9.220;2023-07-31T10:45:43;99553.19;;;23.24;51.41
17260;BME280;8746;49.230;9.220;2023-07-31T10:48:14;99544.06;;;23.07;51.17
17260;BME280;8746;49.230;9.220;2023-07-31T10:50:51;99553.75;;;23.00;50.40
17260;BME280;8746;49.230;9.220;2023-07-31T10:53:28;99542.69;;;23.03;49.82
17260;BME280;8746;49.230;9.220;2023-07-31T10:55:58;99559.66;;;23.49;50.82
17260;BME280;8746;49.230;9.220;2023-07-31T10:58:23;99556.50;;;23.36;50.25
17260;BME280;8746;49.230;9.220;2023-07-31T11:00:49;99552.97;;;23.17;51.79
17260;BME280;8746;49.230;9.220;2023-07-31T11:03:16;99561.94;;;22.80;51.78
17260;BME280;8746;49.230;9.220;2023-07-31T11:06:01;99557.63;;;22.32;53.73
17260;BME280;8746;49.230;9.220;2023-07-31T11:08:38;99546.44;;;22.46;53.64
17260;BME280;8746;49.230;9.220;2023-07-31T11:11:08;99548.00;;;22.67;52.02
17260;BME280;8746;49.230;9.220;2023-07-31T11:14:00;99547.31;;;22.65;52.07
17260;BME280;8746;49.230;9.220;2023-07-31T11:16:25;99545.19;;;22.68;51.46
17260;BME280;8746;49.230;9.220;2023-07-31T11:18:51;99555.97;;;22.86;52.13
17260;BME280;8746;49.230;9.220;2023-07-31T11:21:23;99541.53;;;22.87;51.91
17260;BME280;8746;49.230;9.220;2023-07-31T11:23:55;99543.09;;;23.08;52.71
17260;BME280;8746;49.230;9.220;2023-07-31T11:26:23;99537.16;;;23.04;51.21
17260;BME280;8746;49.230;9.220;2023-07-31T11:28:50;99544.59;;;22.93;51.21
17260;BME280;8746;49.230;9.220;2023-07-31T11:31:16;99543.22;;;23.34;51.27
17260;BME280;8746;49.230;9.220;2023-07-31T11:33:42;99526.16;;;23.70;50.30
17260;BME280;8746;49.230;9.220;2023-07-31T11:36:14;99522.31;;;23.73;49.81
17260;BME280;8746;49.230;9.220;2023-07-31T11:38:40;99518.38;;;23.67;48.56
17260;BME280;8746;49.230;9.220;2023-07-31T11:41:05;99525.44;;;23.24;50.74
17260;BME280;8746;49.230;9.220;2023-07-31T11:43:31;99518.13;;;23.34;51.23
17260;BME280;8746;49.230;9.220;2023-07-31T11:45:58;99514.78;;;23.32;52.00
17260;BME280;8746;49.230;9.220;2023-07-31T11:48:31;99512.38;;;23.29;51.96
17260;BME280;8746;49.230;9.220;2023-07-31T11:51:03;99530.00;;;23.13;50.80
17260;BME280;8746;49.230;9.220;2023-07-31T11:53:32;99526.31;;;23.14;51.20
17260;BME280;8746;49.230;9.220;2023-07-31T11:55:59;99519.19;;;23.23;51.08
17260;BME280;8746;49.230;9.220;2023-07-31T11:58:26;99513.97;;;23.40;51.09
17260;BME280;8746;49.230;9.220;2023-07-31T12:00:52;99507.13;;;23.45;51.38
17260;BME280;8746;49.230;9.220;2023-07-31T12:03:18;99512.91;;;23.50;52.13
17260;BME280;8746;49.230;9.220;2023-07-31T12:05:44;99501.56;;;23.65;51.81
17260;BME280;8746;49.230;9.220;2023-07-31T12:08:11;99501.88;;;23.62;51.31
17260;BME280;8746;49.230;9.220;2023-07-31T12:10:37;99502.47;;;23.74;50.48
17260;BME280;8746;49.230;9.220;2023-07-31T12:13:05;99501.22;;;23.68;50.98
17260;BME280;8746;49.230;9.220;2023-07-31T12:15:38;99505.16;;;24.00;52.03
17260;BME280;8746;49.230;9.220;2023-07-31T12:18:09;99500.41;;;23.94;50.26
17260;BME280;8746;49.230;9.220;2023-07-31T12:20:35;99492.19;;;23.51;51.16
17260;BME280;8746;49.230;9.220;2023-07-31T12:23:04;99499.66;;;23.03;51.60
17260;BME280;8746;49.230;9.220;2023-07-31T12:25:33;99493.50;;;22.75;52.15
17260;BME280;8746;49.230;9.220;2023-07-31T12:28:06;99498.63;;;22.68;53.55
17260;BME280;8746;49.230;9.220;2023-07-31T12:30:37;99482.25;;;22.61;53.53
17260;BME280;8746;49.230;9.220;2023-07-31T12:33:06;99470.81;;;22.59;52.71
17260;BME280;8746;49.230;9.220;2023-07-31T12:35:37;99472.94;;;22.55;54.10
17260;BME280;8746;49.230;9.220;2023-07-31T12:38:03;99468.97;;;22.78;53.14
17260;BME280;8746;49.230;9.220;2023-07-31T12:40:28;99470.22;;;23.01;52.66
17260;BME280;8746;49.230;9.220;2023-07-31T12:42:53;99466.59;;;22.75;53.70
17260;BME280;8746;49.230;9.220;2023-07-31T12:45:19;99472.75;;;23.03;54.33
17260;BME280;8746;49.230;9.220;2023-07-31T12:47:46;99459.53;;;23.28;54.12
17260;BME280;8746;49.230;9.220;2023-07-31T12:50:11;99445.63;;;23.32;53.15
17260;BME280;8746;49.230;9.220;2023-07-31T12:52:36;99449.22;;;23.41;52.58
17260;BME280;8746;49.230;9.220;2023-07-31T12:55:02;99447.78;;;23.29;52.79
17260;BME280;8746;49.230;9.220;2023-07-31T12:57:27;99444.00;;;23.03;52.70
17260;BME280;8746;49.230;9.220;2023-07-31T12:59:52;99445.31;;;22.99;52.29
17260;BME280;8746;49.230;9.220;2023-07-31T13:02:18;99432.94;;;23.07;52.62
17260;BME280;8746;49.230;9.220;2023-07-31T13:04:43;99436.75;;;23.40;52.77
17260;BME280;8746;49.230;9.220;2023-07-31T13:07:09;99431.38;;;23.40;52.31
17260;BME280;8746;49.230;9.220;2023-07-31T13:09:34;99436.38;;;23.35;52.91
17260;BME280;8746;49.230;9.220;2023-07-31T13:12:00;99421.00;;;23.45;52.59